Chie Maru No.10 — JD2376 — position and weather

sailwx.info

Track history (hours):
 
Tides and Currents Weather Stations Pressure Air Temp Water Temp Dewpoint Dewpoint Depression Visibility Wind Speed Wind Dir Waves Ship Positions

Chie Maru No.10

Last reported at 2017-Aug-17 07:59 UTC. Time now 2017-Aug-17 08:05 UTC.
Position N 34°25' E 135°07'.

Length 72 m; draft 4.4 m.

Type: Ship. MMSI: 431000147.

Date/timePositionNaut miles runAvg speedWind from/ knotsBaromVisibWave heightAir tempDewpointWater temp
2017-Aug-17 07:59N 34°25' E 135°07'714.0
2017-Aug-17 07:30N 34°20' E 135°01'13 0.7
2017-Aug-16 12:06N 34°08' E 134°58'111.0
2017-Aug-16 12:00N 34°08' E 134°59'611.4
2017-Aug-16 11:30N 34°08' E 135°06'2 4.5
2017-Aug-16 11:00N 34°07' E 135°08'0 0.0
2017-Aug-16 10:31N 34°07' E 135°08'0 0.0
2017-Aug-16 10:00N 34°07' E 135°08'0 0.0
2017-Aug-16 09:31N 34°07' E 135°08'0 0.0
2017-Aug-16 09:00N 34°07' E 135°08'0 0.0
2017-Aug-16 08:13N 34°07' E 135°08'0 0.0
2017-Aug-16 07:55N 34°07' E 135°08'0 0.0
2017-Aug-16 07:13N 34°07' E 135°08'0 0.8
2017-Aug-16 06:52N 34°07' E 135°08'1 2.1
2017-Aug-16 06:27N 34°08' E 135°07'0 0.0
2017-Aug-16 05:48N 34°08' E 135°07'0 0.0
2017-Aug-16 05:30N 34°08' E 135°07'0 0.0
2017-Aug-16 04:57N 34°08' E 135°07'0 0.0
2017-Aug-16 04:27N 34°08' E 135°07'0 0.0
2017-Aug-16 03:57N 34°08' E 135°07'0 0.1
2017-Aug-16 03:30N 34°08' E 135°07'3 6.2
2017-Aug-16 03:00N 34°08' E 135°03'3 6.3
2017-Aug-16 02:29N 34°07' E 134°59'  
Track history (hours):
 
Tides and Currents Weather Stations Pressure Air Temp Water Temp Dewpoint Dewpoint Depression Visibility Wind Speed Wind Dir Waves Ship Positions

Chie Maru No.10

Last reported at 2017-Aug-17 07:59 UTC. Time now 2017-Aug-17 08:05 UTC.
Position N 34°25' E 135°07'.

Length 72 m; draft 4.4 m.

Type: Ship. MMSI: 431000147.

Date/timePositionNaut miles runAvg speedWind from/ knotsBaromVisibWave heightAir tempDewpointWater temp
2017-Aug-17 07:59N 34°25' E 135°07'714.0
2017-Aug-17 07:30N 34°20' E 135°01'13 0.7
2017-Aug-16 12:06N 34°08' E 134°58'111.0
2017-Aug-16 12:00N 34°08' E 134°59'611.4
2017-Aug-16 11:30N 34°08' E 135°06'2 4.5
2017-Aug-16 11:00N 34°07' E 135°08'0 0.0
2017-Aug-16 10:31N 34°07' E 135°08'0 0.0
2017-Aug-16 10:00N 34°07' E 135°08'0 0.0
2017-Aug-16 09:31N 34°07' E 135°08'0 0.0
2017-Aug-16 09:00N 34°07' E 135°08'0 0.0
2017-Aug-16 08:13N 34°07' E 135°08'0 0.0
2017-Aug-16 07:55N 34°07' E 135°08'0 0.0
2017-Aug-16 07:13N 34°07' E 135°08'0 0.8
2017-Aug-16 06:52N 34°07' E 135°08'1 2.1
2017-Aug-16 06:27N 34°08' E 135°07'0 0.0
2017-Aug-16 05:48N 34°08' E 135°07'0 0.0
2017-Aug-16 05:30N 34°08' E 135°07'0 0.0
2017-Aug-16 04:57N 34°08' E 135°07'0 0.0
2017-Aug-16 04:27N 34°08' E 135°07'0 0.0
2017-Aug-16 03:57N 34°08' E 135°07'0 0.1
2017-Aug-16 03:30N 34°08' E 135°07'3 6.2
2017-Aug-16 03:00N 34°08' E 135°03'3 6.3
2017-Aug-16 02:29N 34°07' E 134°59'  

Dump ship's entire track history